This is the latest recevied weather packets stored in our database for station/object WX9EMS. If no packets are shown the sender has not sent any weather packets the latest 10 day(s).
| Time | Temp. | Humidity | Pressure | Rain* | Wind** | Luminosity | Snow |
|---|---|---|---|---|---|---|---|
| 1778198438 | 12.22° C | 74% | 1010.5 hPa | 0 mm | - | - | - |
| 1778195908 | 14.44° C | 68% | 1010.3 hPa | - | - | - | - |
| 1778195381 | 13.33° C | 70% | 1010.4 hPa | - | - | - | - |
| 1778164565 | - | - | - | 0 mm | - | - | - |
| 1778147652 | -1.67° C | 97% | 1016.1 hPa | 0 mm | - | - | - |
| 1778145326 | -1.11° C | 96% | 1016.1 hPa | 0 mm | - | - | - |
| 1778141125 | 0° C | 90% | 1016 hPa | 0 mm | - | - | - |
| 1778140525 | 0° C | 89% | 1016.2 hPa | 0 mm | - | - | - |
| 1778139946 | 0.56° C | 86% | 1016.3 hPa | 0 mm | - | - | - |
| 1778138725 | 2.22° C | 81% | 1016.5 hPa | 0 mm | - | - | - |
| 1778138125 | 2.22° C | 79% | 1016.7 hPa | 0 mm | - | - | - |
| 1778136925 | 2.78° C | 77% | 1016.6 hPa | 0 mm | - | - | - |
| 1778134564 | 2.78° C | 77% | 1016.8 hPa | 0 mm | - | - | - |
| 1778129724 | 3.33° C | 76% | 1017 hPa | 0 mm | - | - | - |
| 1778129124 | 3.33° C | 76% | 1017 hPa | 0 mm | - | - | - |
| 1778124323 | 5° C | 67% | 1017 hPa | 0 mm | - | - | - |
| 1778117722 | 7.22° C | 61% | 1016.3 hPa | 0 mm | - | - | - |
| 1778115640 | 7.78° C | 57% | 1015.9 hPa | 0 mm | - | - | - |
| 1778111456 | 10.56° C | 54% | 1015.4 hPa | 0 mm | - | - | - |
| 1778076937 | 11.11° C | 53% | 1015.1 hPa | 0 mm | - | - | - |
| 1778075736 | 11.11° C | 56% | 1015.1 hPa | 0 mm | - | - | - |
| 1778075137 | 10.56° C | 57% | 1015 hPa | 0 mm | - | - | - |
| 1778066341 | - | - | - | 0 mm | - | - | - |
| 1778063153 | -1.11° C | 99% | 1013.1 hPa | 0 mm | - | - | - |
| 1778061972 | -0.56° C | 99% | 1013.1 hPa | 0 mm | - | - | - |
* Rain latest hour (hover to see other rain measurements)
** Current wind speed in m/s (hover to see current wind gust speed)